createdAt,value
2018-06-16T00:00:26.945Z,21.40
2018-06-16T00:02:54.801Z,19.50
2018-06-16T00:05:22.650Z,16.63
2018-06-16T00:07:50.542Z,20.03
2018-06-16T00:10:18.425Z,18.70
2018-06-16T00:12:46.338Z,18.57
2018-06-16T00:15:14.255Z,24.30
2018-06-16T00:17:42.142Z,20.90
2018-06-16T00:20:10.162Z,16.37
2018-06-16T00:22:38.148Z,15.40
2018-06-16T00:25:05.877Z,17.60
2018-06-16T00:27:33.702Z,21.27
2018-06-16T00:30:01.560Z,20.60
2018-06-16T00:32:29.475Z,19.80
2018-06-16T00:34:57.375Z,17.20
2018-06-16T00:37:25.153Z,14.83
2018-06-16T00:39:53.025Z,16.00
2018-06-16T00:42:20.883Z,19.27
2018-06-16T00:44:48.625Z,18.67
2018-06-16T00:47:16.493Z,22.27
2018-06-16T00:49:44.339Z,17.97
2018-06-16T00:52:12.311Z,19.33
2018-06-16T00:54:40.151Z,31.20
2018-06-16T00:57:19.403Z,19.17
2018-06-16T00:59:47.250Z,17.50
2018-06-16T01:02:15.078Z,18.77
2018-06-16T01:04:42.965Z,19.70
2018-06-16T01:07:10.890Z,20.53
2018-06-16T01:09:38.734Z,19.20
2018-06-16T01:12:06.628Z,18.60
2018-06-16T01:14:34.485Z,20.10
2018-06-16T01:17:02.446Z,23.17
2018-06-16T01:19:30.547Z,20.50
2018-06-16T01:21:58.438Z,17.97
2018-06-16T01:24:26.310Z,20.00
2018-06-16T01:26:54.153Z,23.67
2018-06-16T01:29:22.543Z,24.03
2018-06-16T01:31:50.598Z,19.93
2018-06-16T01:34:18.311Z,21.80
2018-06-16T01:36:46.820Z,17.70
2018-06-16T01:39:14.649Z,17.83
2018-06-16T01:41:42.502Z,16.03
2018-06-16T01:44:10.385Z,22.10
2018-06-16T01:46:38.253Z,17.87
2018-06-16T01:49:06.094Z,26.40
2018-06-16T01:51:34.476Z,21.80
2018-06-16T01:54:02.197Z,22.33
2018-06-16T01:56:30.057Z,20.73
2018-06-16T01:58:57.928Z,26.73
2018-06-16T02:01:25.769Z,22.43
2018-06-16T02:03:53.675Z,22.43
2018-06-16T02:06:21.420Z,20.77
2018-06-16T02:08:49.425Z,19.93
2018-06-16T02:11:17.259Z,18.10
2018-06-16T02:13:45.154Z,20.20
2018-06-16T02:16:13.665Z,22.30
2018-06-16T02:18:41.542Z,18.17
2018-06-16T02:21:09.467Z,21.30
2018-06-16T02:23:37.311Z,20.03
2018-06-16T02:26:05.156Z,22.90
2018-06-16T02:28:32.995Z,19.40
2018-06-16T02:31:00.883Z,28.63
2018-06-16T02:33:28.708Z,22.60
2018-06-16T02:35:56.441Z,24.50
2018-06-16T02:38:24.291Z,21.60
2018-06-16T02:40:52.222Z,20.37
2018-06-16T02:43:20.106Z,22.27
2018-06-16T02:45:47.973Z,28.13
2018-06-16T02:48:15.900Z,21.27
2018-06-16T02:50:43.731Z,19.47
2018-06-16T02:53:11.578Z,24.50
2018-06-16T02:55:39.446Z,21.60
2018-06-16T02:58:07.280Z,21.00
2018-06-16T03:00:35.160Z,18.57
2018-06-16T03:03:02.862Z,21.63
2018-06-16T03:05:30.746Z,28.50
2018-06-16T03:07:58.640Z,24.40
2018-06-16T03:10:26.337Z,21.17
2018-06-16T03:12:54.225Z,22.13
2018-06-16T03:15:22.178Z,21.40
2018-06-16T03:17:50.011Z,19.10
2018-06-16T03:20:17.901Z,17.70
2018-06-16T03:22:45.730Z,18.10
2018-06-16T03:25:13.681Z,19.53
2018-06-16T03:27:41.519Z,21.93
2018-06-16T03:30:09.399Z,22.63
2018-06-16T03:32:37.239Z,25.20
2018-06-16T03:35:05.273Z,18.17
2018-06-16T03:37:33.107Z,26.40
2018-06-16T03:40:00.964Z,20.83
2018-06-16T03:42:28.851Z,19.10
2018-06-16T03:44:56.704Z,23.70
2018-06-16T03:47:25.207Z,23.03
2018-06-16T03:49:53.051Z,16.23
2018-06-16T03:52:21.617Z,20.90
2018-06-16T03:54:49.507Z,20.43
2018-06-16T03:57:17.360Z,17.23
2018-06-16T03:59:45.282Z,19.30
2018-06-16T04:02:12.999Z,19.10
2018-06-16T04:04:40.876Z,21.30
2018-06-16T04:07:09.397Z,19.13
2018-06-16T04:09:37.239Z,17.63
2018-06-16T04:12:05.172Z,23.13
2018-06-16T04:14:33.030Z,24.10
2018-06-16T04:17:05.763Z,20.87
2018-06-16T04:19:33.498Z,19.53
2018-06-16T04:22:01.358Z,29.50
2018-06-16T04:24:29.191Z,26.10
2018-06-16T04:26:57.020Z,21.73
2018-06-16T04:29:24.958Z,22.27
2018-06-16T04:31:52.851Z,24.07
2018-06-16T04:34:20.677Z,23.10
2018-06-16T04:36:48.524Z,23.97
2018-06-16T04:39:16.408Z,23.63
2018-06-16T04:41:44.303Z,23.67
2018-06-16T04:44:12.172Z,25.67
2018-06-16T04:46:40.154Z,21.80
2018-06-16T04:49:07.871Z,28.90
2018-06-16T04:51:35.994Z,31.23
2018-06-16T04:54:03.924Z,23.33
2018-06-16T04:56:32.018Z,30.93
2018-06-16T04:59:00.308Z,23.50
2018-06-16T05:01:28.152Z,29.43
2018-06-16T05:03:56.018Z,30.37
2018-06-16T05:06:23.897Z,24.40
2018-06-16T05:08:51.769Z,27.23
2018-06-16T05:11:19.629Z,32.20
2018-06-16T05:13:48.839Z,29.17
2018-06-16T05:16:16.815Z,28.13
2018-06-16T05:18:44.869Z,25.70
2018-06-16T05:21:12.696Z,23.90
2018-06-16T05:23:40.571Z,23.73
2018-06-16T05:26:08.472Z,26.63
2018-06-16T05:28:36.364Z,20.13
2018-06-16T05:31:04.059Z,26.57
2018-06-16T05:33:32.525Z,22.67
2018-06-16T05:36:00.374Z,21.67
2018-06-16T05:38:28.266Z,21.23
2018-06-16T05:40:56.124Z,27.53
2018-06-16T05:43:24.126Z,18.50
2018-06-16T05:45:52.056Z,25.43
2018-06-16T05:48:20.791Z,17.77
2018-06-16T05:50:48.673Z,26.03
2018-06-16T05:53:16.637Z,35.40
2018-06-16T05:55:44.498Z,19.40
2018-06-16T05:58:13.209Z,20.37
2018-06-16T06:00:41.066Z,17.27
2018-06-16T06:03:08.928Z,23.53
2018-06-16T06:05:36.811Z,15.80
2018-06-16T06:08:04.776Z,20.40
2018-06-16T06:10:32.820Z,16.10
2018-06-16T06:13:00.718Z,19.80
2018-06-16T06:15:28.731Z,16.40
2018-06-16T06:17:56.560Z,17.30
2018-06-16T06:20:24.398Z,15.90
2018-06-16T06:22:52.242Z,16.17
2018-06-16T06:25:20.181Z,17.80
2018-06-16T06:27:48.791Z,18.50
2018-06-16T06:30:16.658Z,16.03
2018-06-16T06:32:44.504Z,17.00
2018-06-16T06:35:12.331Z,15.03
2018-06-16T06:37:40.386Z,17.80
2018-06-16T06:40:08.151Z,15.13
2018-06-16T06:42:35.991Z,15.27
2018-06-16T06:45:04.246Z,11.50
2018-06-16T06:48:51.568Z,12.17
2018-06-16T06:51:19.499Z,13.90
2018-06-16T06:53:47.338Z,12.67
2018-06-16T06:56:15.840Z,15.20
2018-06-16T06:58:43.752Z,12.50
2018-06-16T07:01:11.655Z,15.67
2018-06-16T07:03:39.930Z,12.43
2018-06-16T07:06:07.821Z,14.87
2018-06-16T07:08:35.672Z,10.97
2018-06-16T07:11:03.559Z,11.00
2018-06-16T07:13:31.438Z,13.47
2018-06-16T07:15:59.293Z,17.47
2018-06-16T07:18:27.156Z,12.13
2018-06-16T07:20:55.371Z,10.93
2018-06-16T07:23:23.078Z,14.53
2018-06-16T07:25:51.488Z,14.50
2018-06-16T07:28:20.344Z,11.87
2018-06-16T07:30:48.244Z,10.50
2018-06-16T07:33:16.803Z,7.93
2018-06-16T07:35:44.678Z,10.63
2018-06-16T07:38:12.568Z,17.40
2018-06-16T07:40:40.388Z,7.63
2018-06-16T07:43:08.273Z,12.83
2018-06-16T07:45:36.098Z,8.27
2018-06-16T07:48:04.148Z,10.60
2018-06-16T07:50:32.094Z,10.67
2018-06-16T07:53:00.088Z,13.43
2018-06-16T07:55:27.806Z,16.90
2018-06-16T07:57:55.647Z,13.80
2018-06-16T08:00:23.526Z,11.23
2018-06-16T08:02:51.405Z,10.73
2018-06-16T08:05:19.259Z,13.90
2018-06-16T08:07:47.111Z,12.30
2018-06-16T08:10:14.957Z,16.20
2018-06-16T08:12:42.858Z,10.97
2018-06-16T08:15:10.755Z,9.33
2018-06-16T08:17:38.632Z,8.30
2018-06-16T08:20:06.547Z,9.57
2018-06-16T08:22:34.424Z,9.17
2018-06-16T08:25:03.517Z,10.13
2018-06-16T08:27:31.406Z,11.33
2018-06-16T08:29:59.622Z,9.03
2018-06-16T08:32:27.613Z,10.50
2018-06-16T08:34:55.332Z,10.13
2018-06-16T08:37:23.231Z,8.90
2018-06-16T08:39:51.664Z,12.07
2018-06-16T08:42:20.170Z,8.53
2018-06-16T08:44:48.745Z,8.67
2018-06-16T08:47:17.448Z,8.93
2018-06-16T08:49:45.222Z,15.00
2018-06-16T08:52:13.851Z,12.60
2018-06-16T08:54:43.058Z,8.93
2018-06-16T08:57:11.440Z,8.57
2018-06-16T08:59:39.316Z,9.30
2018-06-16T09:02:07.230Z,8.63
2018-06-16T09:04:34.953Z,9.17
2018-06-16T09:07:02.796Z,8.93
2018-06-16T09:09:31.614Z,14.30
2018-06-16T09:11:59.492Z,7.93
2018-06-16T09:14:27.214Z,8.53
2018-06-16T09:16:55.056Z,9.07
2018-06-16T09:19:23.893Z,9.93
2018-06-16T09:21:51.741Z,10.70
2018-06-16T09:24:19.630Z,11.73
2018-06-16T09:26:47.388Z,9.30
2018-06-16T09:29:16.783Z,10.77
2018-06-16T09:31:44.698Z,14.03
2018-06-16T09:34:12.569Z,13.00
2018-06-16T09:36:40.449Z,18.90
2018-06-16T09:39:09.977Z,9.40
2018-06-16T09:41:38.020Z,8.77
2018-06-16T09:44:06.069Z,9.17
2018-06-16T09:46:34.706Z,11.80
2018-06-16T09:49:02.573Z,8.17
2018-06-16T09:51:30.624Z,9.53
2018-06-16T09:53:58.365Z,8.00
2018-06-16T09:56:26.254Z,8.33
2018-06-16T09:58:53.993Z,10.70
2018-06-16T10:01:21.987Z,10.20
2018-06-16T10:03:50.026Z,10.30
2018-06-16T10:06:17.774Z,8.03
2018-06-16T10:08:45.647Z,7.47
2018-06-16T10:11:13.376Z,12.50
2018-06-16T10:13:41.326Z,7.73
2018-06-16T10:16:09.042Z,7.50
2018-06-16T10:18:38.536Z,7.43
2018-06-16T10:21:06.365Z,9.90
2018-06-16T10:23:34.393Z,9.57
2018-06-16T10:26:02.274Z,14.70
2018-06-16T10:28:30.111Z,10.07
2018-06-16T10:30:58.000Z,11.67
2018-06-16T10:33:25.837Z,10.27
2018-06-16T10:35:53.686Z,14.90
2018-06-16T10:38:21.555Z,7.93
2018-06-16T10:40:49.423Z,11.20
2018-06-16T10:43:17.404Z,7.77
2018-06-16T10:45:45.285Z,7.97
2018-06-16T10:48:15.724Z,9.63
2018-06-16T10:50:43.777Z,10.53
2018-06-16T10:53:11.798Z,8.03
2018-06-16T10:55:40.329Z,8.97
2018-06-16T10:58:08.824Z,6.53
2018-06-16T11:00:36.700Z,9.47
2018-06-16T11:03:06.643Z,7.83
2018-06-16T11:05:34.522Z,14.60
2018-06-16T11:08:02.246Z,7.33
2018-06-16T11:10:30.101Z,8.00
2018-06-16T11:12:57.945Z,11.43
2018-06-16T11:15:26.676Z,8.07
2018-06-16T11:17:55.971Z,13.07
2018-06-16T11:20:23.725Z,7.07
2018-06-16T11:22:51.573Z,6.30
2018-06-16T11:25:19.505Z,7.93
2018-06-16T11:27:47.386Z,11.80
2018-06-16T11:30:15.257Z,8.83
2018-06-16T11:32:43.125Z,10.50
2018-06-16T11:35:10.985Z,8.83
2018-06-16T11:37:38.849Z,6.70
2018-06-16T11:40:07.085Z,9.90
2018-06-16T11:42:35.003Z,7.83
2018-06-16T11:45:03.795Z,7.90
2018-06-16T11:47:31.679Z,16.93
2018-06-16T11:49:59.529Z,8.77
2018-06-16T11:52:27.402Z,7.10
2018-06-16T11:54:57.012Z,7.17
2018-06-16T11:57:26.649Z,10.80
2018-06-16T11:59:54.624Z,7.47
2018-06-16T12:02:22.479Z,7.80
2018-06-16T12:04:50.366Z,8.23
2018-06-16T12:07:18.208Z,7.80
2018-06-16T12:09:46.077Z,6.60
2018-06-16T12:12:15.330Z,10.63
2018-06-16T12:14:43.832Z,9.53
2018-06-16T12:17:12.391Z,7.37
2018-06-16T12:19:40.294Z,7.03
2018-06-16T12:22:11.860Z,5.13
2018-06-16T12:24:40.045Z,14.00
2018-06-16T12:27:07.898Z,10.00
2018-06-16T12:32:14.668Z,14.00
2018-06-16T12:34:42.550Z,11.57
2018-06-16T12:37:10.940Z,5.27
2018-06-16T12:39:39.090Z,8.97
2018-06-16T12:42:08.254Z,13.57
2018-06-16T12:44:35.987Z,6.53
2018-06-16T12:47:04.242Z,7.80
2018-06-16T12:49:32.108Z,6.27
2018-06-16T12:51:59.994Z,5.93
2018-06-16T12:54:28.500Z,8.10
2018-06-16T12:56:57.196Z,7.20
2018-06-16T12:59:24.997Z,4.70
2018-06-16T13:01:52.841Z,5.83
2018-06-16T13:04:20.663Z,9.53
2018-06-16T13:06:48.495Z,8.20
2018-06-16T13:09:16.365Z,4.90
2018-06-16T13:11:44.793Z,6.47
2018-06-16T13:14:12.659Z,7.50
2018-06-16T13:16:40.577Z,8.93
2018-06-16T13:19:08.453Z,10.57
2018-06-16T13:21:36.411Z,14.00
2018-06-16T13:24:04.311Z,6.40
2018-06-16T13:26:32.174Z,8.33
2018-06-16T13:29:00.063Z,7.43
2018-06-16T13:31:27.927Z,11.40
2018-06-16T13:33:55.797Z,10.63
2018-06-16T13:36:23.643Z,5.87
2018-06-16T13:38:51.512Z,10.77
2018-06-16T13:41:19.397Z,8.77
2018-06-16T13:43:47.248Z,5.93
2018-06-16T13:46:15.818Z,8.37
2018-06-16T13:48:43.710Z,10.50
2018-06-16T13:51:11.581Z,5.57
2018-06-16T13:53:39.551Z,6.20
2018-06-16T13:56:07.385Z,8.00
2018-06-16T13:58:35.408Z,4.50
2018-06-16T14:01:03.352Z,7.20
2018-06-16T14:03:31.235Z,6.57
2018-06-16T14:05:58.987Z,5.73
2018-06-16T14:08:26.880Z,6.07
2018-06-16T14:10:54.784Z,6.27
2018-06-16T14:13:22.676Z,5.93
2018-06-16T14:15:50.567Z,8.93
2018-06-16T14:18:18.606Z,8.33
2018-06-16T14:20:46.472Z,14.13
2018-06-16T14:23:14.348Z,5.23
2018-06-16T14:25:42.435Z,8.33
2018-06-16T14:28:10.141Z,8.73
2018-06-16T14:30:38.754Z,7.63
2018-06-16T14:33:06.681Z,10.83
2018-06-16T14:35:34.502Z,7.97
2018-06-16T14:38:03.198Z,7.00
2018-06-16T14:40:31.190Z,7.20
2018-06-16T14:42:59.066Z,9.20
2018-06-16T14:45:27.479Z,7.33
2018-06-16T14:47:56.447Z,5.37
2018-06-16T14:50:24.164Z,6.00
2018-06-16T14:52:52.206Z,5.37
2018-06-16T14:55:20.826Z,8.07
2018-06-16T14:57:48.819Z,8.57
2018-06-16T15:00:16.693Z,7.30
2018-06-16T15:02:44.404Z,5.83
2018-06-16T15:05:12.311Z,8.77
2018-06-16T15:07:41.040Z,4.80
2018-06-16T15:10:08.907Z,6.20
2018-06-16T15:12:36.745Z,11.60
2018-06-16T15:15:04.491Z,6.33
2018-06-16T15:17:32.311Z,8.07
2018-06-16T15:20:00.180Z,8.80
2018-06-16T15:22:28.196Z,4.80
2018-06-16T15:24:56.042Z,6.03
2018-06-16T15:27:23.904Z,6.80
2018-06-16T15:29:51.741Z,6.83
2018-06-16T15:32:19.642Z,5.43
2018-06-16T15:34:47.539Z,5.43
2018-06-16T15:37:15.253Z,4.80
2018-06-16T15:39:43.084Z,5.03
2018-06-16T15:42:10.788Z,8.23
2018-06-16T15:44:39.988Z,5.67
2018-06-16T15:47:07.860Z,6.13
2018-06-16T15:49:35.932Z,6.73
2018-06-16T15:52:04.432Z,9.47
2018-06-16T15:54:32.292Z,11.93
2018-06-16T15:57:00.288Z,7.00
2018-06-16T15:59:28.197Z,10.13
2018-06-16T16:01:56.056Z,8.03
2018-06-16T16:04:24.415Z,9.90
2018-06-16T16:06:52.276Z,5.90
2018-06-16T16:09:20.119Z,6.97
2018-06-16T16:11:47.989Z,8.97
2018-06-16T16:14:15.766Z,7.30
2018-06-16T16:16:43.622Z,6.70
2018-06-16T16:19:11.507Z,9.53
2018-06-16T16:21:39.370Z,5.90
2018-06-16T16:24:07.441Z,7.97
2018-06-16T16:26:35.309Z,8.13
2018-06-16T16:29:03.217Z,12.80
2018-06-16T16:31:31.097Z,5.33
2018-06-16T16:33:59.066Z,9.60
2018-06-16T16:36:27.288Z,5.13
2018-06-16T16:38:55.018Z,7.87
2018-06-16T16:41:22.819Z,5.83
2018-06-16T16:43:50.563Z,8.27
2018-06-16T16:46:18.459Z,6.77
2018-06-16T16:48:46.738Z,9.83
2018-06-16T16:51:14.485Z,7.77
2018-06-16T16:53:42.421Z,6.77
2018-06-16T16:56:10.379Z,10.60
2018-06-16T16:58:38.263Z,8.17
2018-06-16T17:01:06.184Z,24.07
2018-06-16T17:03:34.097Z,9.23
2018-06-16T17:06:02.123Z,7.00
2018-06-16T17:08:30.020Z,7.30
2018-06-16T17:10:58.028Z,7.73
2018-06-16T17:13:25.902Z,6.20
2018-06-16T17:15:53.771Z,6.10
2018-06-16T17:18:22.379Z,6.90
2018-06-16T17:20:50.248Z,6.70
2018-06-16T17:23:18.381Z,6.33
2018-06-16T17:25:46.383Z,7.70
2018-06-16T17:28:14.121Z,9.63
2018-06-16T17:30:41.883Z,8.07
2018-06-16T17:33:09.737Z,10.00
2018-06-16T17:35:38.191Z,7.10
2018-06-16T17:38:06.383Z,6.67
2018-06-16T17:40:34.271Z,7.30
2018-06-16T17:43:02.141Z,14.40
2018-06-16T17:45:29.979Z,7.40
2018-06-16T17:47:58.475Z,6.00
2018-06-16T17:50:26.348Z,6.87
2018-06-16T17:52:54.315Z,8.83
2018-06-16T17:55:22.251Z,8.63
2018-06-16T17:57:51.055Z,7.80
2018-06-16T18:00:18.954Z,7.87
2018-06-16T18:02:46.849Z,8.10
2018-06-16T18:05:14.987Z,7.23
2018-06-16T18:07:42.888Z,6.10
2018-06-16T18:10:10.740Z,9.40
2018-06-16T18:12:38.595Z,9.10
2018-06-16T18:15:06.459Z,7.50
2018-06-16T18:17:35.471Z,10.37
2018-06-16T18:20:03.568Z,7.13
2018-06-16T18:22:31.273Z,7.93
2018-06-16T18:24:59.138Z,8.50
2018-06-16T18:27:27.009Z,8.97
2018-06-16T18:29:54.887Z,15.53
2018-06-16T18:32:23.110Z,20.13
2018-06-16T18:34:51.000Z,14.33
2018-06-16T18:37:18.787Z,13.93
2018-06-16T18:39:46.688Z,8.80
2018-06-16T18:42:14.460Z,12.90
2018-06-16T18:44:42.355Z,13.13
2018-06-16T18:47:10.440Z,14.93
2018-06-16T18:49:38.293Z,9.50
2018-06-16T18:52:06.330Z,13.03
2018-06-16T18:54:34.062Z,18.30
2018-06-16T18:57:01.906Z,11.83
2018-06-16T18:59:29.745Z,11.23
2018-06-16T19:01:57.489Z,9.93
2018-06-16T19:04:26.204Z,13.10
2018-06-16T19:06:54.049Z,18.93
2018-06-16T19:09:21.796Z,9.93
2018-06-16T19:11:49.530Z,9.90
2018-06-16T19:14:17.497Z,16.03
2018-06-16T19:16:45.700Z,10.90
2018-06-16T19:19:13.717Z,19.60
2018-06-16T19:21:42.224Z,11.43
2018-06-16T19:24:10.115Z,11.00
2018-06-16T19:26:38.226Z,16.13
2018-06-16T19:29:06.090Z,11.80
2018-06-16T19:31:34.043Z,11.70
2018-06-16T19:34:01.988Z,14.67
2018-06-16T19:36:30.290Z,11.43
2018-06-16T19:38:58.206Z,12.93
2018-06-16T19:41:26.081Z,14.20
2018-06-16T19:43:54.211Z,17.03
2018-06-16T19:46:22.188Z,12.20
2018-06-16T19:48:50.674Z,12.73
2018-06-16T19:51:18.581Z,15.07
2018-06-16T19:53:46.538Z,10.13
2018-06-16T19:56:14.427Z,12.80
2018-06-16T19:58:42.869Z,22.47
2018-06-16T20:01:10.774Z,25.00
2018-06-16T20:03:38.994Z,19.73
2018-06-16T20:06:07.510Z,25.03
2018-06-16T20:08:35.438Z,21.70
2018-06-16T20:11:05.359Z,14.90
2018-06-16T20:13:34.077Z,22.87
2018-06-16T20:16:02.972Z,17.00
2018-06-16T20:18:30.882Z,19.27
2018-06-16T20:20:58.670Z,17.43
2018-06-16T20:23:26.491Z,17.93
2018-06-16T20:25:54.427Z,14.50
2018-06-16T20:28:22.368Z,14.40
2018-06-16T20:30:50.886Z,15.63
2018-06-16T20:33:18.733Z,11.93
2018-06-16T20:35:46.573Z,15.43
2018-06-16T20:38:14.486Z,17.87
2018-06-16T20:40:42.380Z,11.63
2018-06-16T20:43:10.296Z,20.93
2018-06-16T20:45:38.309Z,17.57
2018-06-16T20:48:06.993Z,15.90
2018-06-16T20:50:34.932Z,12.67
2018-06-16T20:53:02.830Z,21.23
2018-06-16T20:55:30.762Z,11.13
2018-06-16T20:57:58.827Z,11.57
2018-06-16T21:00:26.742Z,15.40
2018-06-16T21:02:54.651Z,10.70
2018-06-16T21:05:22.399Z,10.83
2018-06-16T21:07:50.130Z,11.20
2018-06-16T21:10:18.953Z,9.93
2018-06-16T21:12:46.799Z,10.87
2018-06-16T21:15:14.671Z,13.57
2018-06-16T21:17:42.546Z,10.60
2018-06-16T21:20:10.455Z,11.57
2018-06-16T21:22:38.392Z,13.73
2018-06-16T21:25:06.233Z,11.33
2018-06-16T21:27:34.113Z,12.00
2018-06-16T21:30:01.862Z,11.70
2018-06-16T21:32:29.841Z,9.43
2018-06-16T21:34:57.700Z,12.20
2018-06-16T21:37:25.544Z,21.40
2018-06-16T21:39:53.671Z,14.30
2018-06-16T21:42:21.537Z,15.13
2018-06-16T21:44:49.492Z,20.13
2018-06-16T21:47:18.044Z,11.17
2018-06-16T21:49:45.901Z,12.63
2018-06-16T21:52:13.824Z,18.50
2018-06-16T21:54:42.684Z,13.07
2018-06-16T21:57:10.532Z,13.30
2018-06-16T21:59:38.386Z,13.07
2018-06-16T22:02:06.432Z,11.60
2018-06-16T22:04:34.501Z,13.37
2018-06-16T22:07:02.342Z,11.70
2018-06-16T22:09:31.031Z,17.20
2018-06-16T22:11:58.775Z,14.40
2018-06-16T22:14:26.634Z,11.40
2018-06-16T22:16:54.611Z,15.27
2018-06-16T22:19:22.499Z,11.57
2018-06-16T22:21:50.270Z,18.90
2018-06-16T22:24:18.797Z,14.00
2018-06-16T22:26:46.745Z,14.63
2018-06-16T22:29:14.647Z,14.60
2018-06-16T22:31:42.572Z,13.43
2018-06-16T22:34:10.454Z,16.03
2018-06-16T22:36:38.375Z,14.53
2018-06-16T22:39:09.510Z,18.63
2018-06-16T22:41:37.357Z,15.10
2018-06-16T22:44:05.759Z,14.60
2018-06-16T22:46:34.279Z,19.37
2018-06-16T22:49:02.017Z,15.23
2018-06-16T22:51:29.884Z,14.90
2018-06-16T22:53:58.379Z,16.70
2018-06-16T22:56:26.438Z,15.23
2018-06-16T22:58:54.367Z,14.30
2018-06-16T23:01:22.243Z,11.87
2018-06-16T23:03:50.327Z,18.17
2018-06-16T23:06:18.077Z,13.53
2018-06-16T23:08:45.939Z,13.90
2018-06-16T23:11:13.937Z,20.60
2018-06-16T23:13:41.820Z,17.00
2018-06-16T23:16:09.749Z,11.37
2018-06-16T23:18:37.659Z,13.10
2018-06-16T23:21:05.646Z,12.20
2018-06-16T23:23:33.548Z,14.47
2018-06-16T23:26:01.987Z,13.67
2018-06-16T23:28:29.923Z,16.77
2018-06-16T23:30:57.661Z,15.97
2018-06-16T23:33:25.588Z,18.90
2018-06-16T23:35:53.568Z,15.40
2018-06-16T23:38:21.287Z,17.33
2018-06-16T23:40:49.047Z,14.07
2018-06-16T23:43:16.902Z,12.43
2018-06-16T23:45:44.750Z,15.90
2018-06-16T23:48:12.577Z,17.47
2018-06-16T23:50:40.431Z,14.43
2018-06-16T23:53:08.734Z,14.93
2018-06-16T23:55:36.602Z,15.50
2018-06-16T23:58:04.534Z,15.00
